createdAt,value
2023-01-25T00:01:35.593Z,101528.31
2023-01-25T00:04:02.231Z,101521.09
2023-01-25T00:06:28.971Z,101515.31
2023-01-25T00:08:59.142Z,101511.59
2023-01-25T00:11:25.820Z,101515.41
2023-01-25T00:13:57.677Z,101510.28
2023-01-25T00:16:24.737Z,101510.94
2023-01-25T00:18:51.600Z,101507.84
2023-01-25T00:21:25.114Z,101509.25
2023-01-25T00:26:35.098Z,101503.09
2023-01-25T00:29:03.056Z,101501.94
2023-01-25T00:31:55.511Z,101506.28
2023-01-25T00:34:30.036Z,101498.44
2023-01-25T00:37:14.735Z,101496.06
2023-01-25T00:39:41.739Z,101498.63
2023-01-25T00:42:12.482Z,101502.69
2023-01-25T00:44:39.893Z,101500.09
2023-01-25T00:47:06.924Z,101492.88
2023-01-25T00:49:33.844Z,101498.63
2023-01-25T00:52:00.679Z,101498.38
2023-01-25T00:54:27.432Z,101487.56
2023-01-25T00:56:56.520Z,101485.25
2023-01-25T00:59:24.994Z,101487.38
2023-01-25T01:01:53.400Z,101489.63
2023-01-25T01:04:21.288Z,101486.22
2023-01-25T01:06:48.068Z,101484.81
2023-01-25T01:09:16.971Z,101479.66
2023-01-25T01:11:44.406Z,101480.16
2023-01-25T01:16:36.787Z,101485.31
2023-01-25T01:19:03.939Z,101483.31
2023-01-25T01:21:30.735Z,101478.13
2023-01-25T01:23:57.782Z,101488.22
2023-01-25T01:26:24.643Z,101480.97
2023-01-25T01:28:51.791Z,101480.56
2023-01-25T01:31:22.003Z,101474.53
2023-01-25T01:33:50.563Z,101472.50
2023-01-25T01:36:19.835Z,101468.06
2023-01-25T01:38:46.950Z,101464.66
2023-01-25T01:41:14.231Z,101466.56
2023-01-25T01:43:41.799Z,101474.41
2023-01-25T01:46:13.126Z,101458.28
2023-01-25T01:49:03.162Z,101460.84
2023-01-25T01:51:48.003Z,101470.06
2023-01-25T01:54:45.541Z,101467.22
2023-01-25T01:57:18.598Z,101468.34
2023-01-25T02:00:01.767Z,101464.44
2023-01-25T02:02:28.613Z,101475.91
2023-01-25T02:05:00.328Z,101474.88
2023-01-25T02:07:35.031Z,101467.44
2023-01-25T02:10:04.733Z,101469.31
2023-01-25T02:12:32.224Z,101465.91
2023-01-25T02:14:58.959Z,101460.00
2023-01-25T02:17:29.884Z,101472.63
2023-01-25T02:20:12.501Z,101463.81
2023-01-25T02:23:00.092Z,101459.50
2023-01-25T02:28:07.457Z,101463.38
2023-01-25T02:30:35.031Z,101464.66
2023-01-25T02:33:01.841Z,101459.25
2023-01-25T02:35:40.477Z,101455.41
2023-01-25T02:38:08.491Z,101460.84
2023-01-25T02:40:44.900Z,101453.22
2023-01-25T02:43:12.462Z,101459.16
2023-01-25T02:45:39.163Z,101447.25
2023-01-25T02:48:09.398Z,101460.50
2023-01-25T02:50:36.114Z,101449.81
2023-01-25T02:53:02.842Z,101448.94
2023-01-25T02:55:29.536Z,101440.25
2023-01-25T02:57:56.280Z,101444.28
2023-01-25T03:00:23.809Z,101443.66
2023-01-25T03:02:50.518Z,101441.09
2023-01-25T03:05:17.208Z,101436.19
2023-01-25T03:07:43.979Z,101442.88
2023-01-25T03:12:37.583Z,101437.19
2023-01-25T03:15:05.015Z,101439.19
2023-01-25T03:17:31.906Z,101440.25
2023-01-25T03:19:58.582Z,101429.03
2023-01-25T03:22:25.922Z,101423.38
2023-01-25T03:24:52.772Z,101429.97
2023-01-25T03:27:19.691Z,101436.44
2023-01-25T03:29:46.556Z,101429.88
2023-01-25T03:32:13.450Z,101436.84
2023-01-25T03:34:40.200Z,101428.59
2023-01-25T03:37:07.074Z,101428.88
2023-01-25T03:39:33.751Z,101426.69
2023-01-25T03:42:00.422Z,101423.69
2023-01-25T03:44:27.250Z,101417.56
2023-01-25T03:46:56.794Z,101417.56
2023-01-25T03:49:23.775Z,101418.81
2023-01-25T03:51:50.479Z,101411.38
2023-01-25T03:54:17.191Z,101413.81
2023-01-25T03:56:43.982Z,101415.63
2023-01-25T03:59:12.665Z,101406.97
2023-01-25T04:01:39.375Z,101409.91
2023-01-25T04:04:06.252Z,101401.66
2023-01-25T04:06:33.051Z,101408.00
2023-01-25T04:08:59.734Z,101407.56
2023-01-25T04:11:26.448Z,101403.34
2023-01-25T04:13:53.231Z,101405.22
2023-01-25T04:16:20.057Z,101402.13
2023-01-25T04:18:46.800Z,101399.28
2023-01-25T04:21:13.571Z,101403.88
2023-01-25T04:23:40.325Z,101384.88
2023-01-25T04:26:09.661Z,101388.06
2023-01-25T04:28:36.422Z,101385.75
2023-01-25T04:31:03.840Z,101381.41
2023-01-25T04:33:30.559Z,101383.41
2023-01-25T04:35:57.705Z,101380.81
2023-01-25T04:38:24.528Z,101378.19
2023-01-25T04:40:52.541Z,101374.06
2023-01-25T04:43:20.430Z,101375.53
2023-01-25T04:45:47.390Z,101364.28
2023-01-25T04:48:14.662Z,101355.72
2023-01-25T04:50:43.293Z,101357.19
2023-01-25T04:53:11.551Z,101353.47
2023-01-25T04:55:38.265Z,101358.91
2023-01-25T04:58:05.282Z,101353.06
2023-01-25T05:00:32.628Z,101343.75
2023-01-25T05:02:59.323Z,101346.06
2023-01-25T05:05:29.204Z,101345.63
2023-01-25T05:07:56.251Z,101346.06
2023-01-25T05:10:23.380Z,101349.44
2023-01-25T05:12:50.012Z,101347.56
2023-01-25T05:15:16.721Z,101344.38
2023-01-25T05:17:43.357Z,101350.94
2023-01-25T05:22:37.328Z,101337.56
2023-01-25T05:25:06.470Z,101338.41
2023-01-25T05:27:33.204Z,101337.56
2023-01-25T05:29:59.864Z,101335.25
2023-01-25T05:32:26.637Z,101327.41
2023-01-25T05:34:53.395Z,101335.69
2023-01-25T05:37:23.915Z,101328.25
2023-01-25T05:39:50.631Z,101332.94
2023-01-25T05:42:18.930Z,101324.22
2023-01-25T05:44:47.541Z,101327.50
2023-01-25T05:47:16.440Z,101331.75
2023-01-25T05:49:43.377Z,101331.41
2023-01-25T05:52:12.581Z,101336.50
2023-01-25T05:54:39.327Z,101332.06
2023-01-25T05:57:06.060Z,101325.72
2023-01-25T05:59:32.731Z,101320.41
2023-01-25T06:01:59.472Z,101308.94
2023-01-25T06:04:26.280Z,101311.91
2023-01-25T06:06:53.188Z,101315.09
2023-01-25T06:09:20.845Z,101309.34
2023-01-25T06:11:47.672Z,101310.44
2023-01-25T06:14:14.522Z,101307.56
2023-01-25T06:16:42.124Z,101304.78
2023-01-25T06:19:12.889Z,101310.41
2023-01-25T06:21:39.589Z,101306.63
2023-01-25T06:24:06.693Z,101300.25
2023-01-25T06:26:33.435Z,101305.75
2023-01-25T06:29:00.150Z,101307.91
2023-01-25T06:31:26.950Z,101307.44
2023-01-25T06:33:53.871Z,101312.53
2023-01-25T06:36:22.685Z,101303.84
2023-01-25T06:38:53.032Z,101313.31
2023-01-25T06:41:20.829Z,101304.25
2023-01-25T06:43:50.053Z,101313.19
2023-01-25T06:46:17.174Z,101302.25
2023-01-25T06:48:43.997Z,101307.44
2023-01-25T06:51:15.725Z,101304.47
2023-01-25T06:53:45.600Z,101303.84
2023-01-25T06:56:17.896Z,101303.75
2023-01-25T06:58:45.065Z,101300.66
2023-01-25T07:01:13.147Z,101301.28
2023-01-25T07:03:40.428Z,101300.13
2023-01-25T07:06:09.850Z,101301.63
2023-01-25T07:08:37.283Z,101300.78
2023-01-25T07:11:06.596Z,101306.13
2023-01-25T07:13:34.739Z,101292.38
2023-01-25T07:16:08.814Z,101303.44
2023-01-25T07:18:38.880Z,101304.59
2023-01-25T07:21:08.263Z,101298.31
2023-01-25T07:23:35.449Z,101300.44
2023-01-25T07:26:02.298Z,101295.13
2023-01-25T07:28:28.928Z,101298.63
2023-01-25T07:30:55.614Z,101296.53
2023-01-25T07:33:22.411Z,101296.84
2023-01-25T07:35:51.072Z,101300.13
2023-01-25T07:38:17.934Z,101300.88
2023-01-25T07:40:44.701Z,101307.88
2023-01-25T07:45:37.795Z,101300.91
2023-01-25T07:50:37.470Z,101303.31
2023-01-25T07:53:04.172Z,101298.75
2023-01-25T07:55:31.198Z,101300.44
2023-01-25T07:57:57.940Z,101296.09
2023-01-25T08:00:25.127Z,101297.16
2023-01-25T08:02:52.620Z,101297.69
2023-01-25T08:05:19.881Z,101295.34
2023-01-25T08:07:47.211Z,101295.88
2023-01-25T08:10:14.075Z,101294.41
2023-01-25T08:12:45.773Z,101293.44
2023-01-25T08:15:14.054Z,101294.50
2023-01-25T08:17:40.880Z,101294.41
2023-01-25T08:20:08.966Z,101296.63
2023-01-25T08:22:35.907Z,101291.44
2023-01-25T08:25:03.890Z,101290.91
2023-01-25T08:27:30.606Z,101298.66
2023-01-25T08:29:57.321Z,101293.41
2023-01-25T08:32:24.064Z,101292.81
2023-01-25T08:34:50.750Z,101286.56
2023-01-25T08:37:17.408Z,101292.91
2023-01-25T08:39:44.120Z,101286.19
2023-01-25T08:44:37.214Z,101283.84
2023-01-25T08:47:03.939Z,101282.38
2023-01-25T08:49:31.273Z,101282.56
2023-01-25T08:51:58.649Z,101277.09
2023-01-25T08:54:25.709Z,101266.78
2023-01-25T08:56:52.571Z,101261.66
2023-01-25T08:59:19.439Z,101258.38
2023-01-25T09:01:46.115Z,101261.34
2023-01-25T09:04:12.744Z,101259.66
2023-01-25T09:06:39.413Z,101269.63
2023-01-25T09:09:06.470Z,101259.44
2023-01-25T09:11:35.046Z,101259.66
2023-01-25T09:14:01.713Z,101255.50
2023-01-25T09:16:29.407Z,101260.56
2023-01-25T09:19:02.410Z,101261.34
2023-01-25T09:21:30.085Z,101252.75
2023-01-25T09:24:05.934Z,101255.84
2023-01-25T09:26:34.800Z,101254.56
2023-01-25T09:29:01.610Z,101257.38
2023-01-25T09:31:29.637Z,101251.56
2023-01-25T09:33:57.375Z,101252.81
2023-01-25T09:36:24.076Z,101249.44
2023-01-25T09:38:50.813Z,101248.84
2023-01-25T09:41:56.265Z,101257.75
2023-01-25T09:44:45.919Z,101254.53
2023-01-25T09:47:25.715Z,101246.25
2023-01-25T09:52:56.166Z,101255.63
2023-01-25T09:55:27.945Z,101254.47
2023-01-25T09:57:57.033Z,101256.78
2023-01-25T10:00:55.484Z,101242.88
2023-01-25T10:03:45.564Z,101245.59
2023-01-25T10:06:14.439Z,101236.94
2023-01-25T10:08:43.818Z,101247.13
2023-01-25T10:11:11.660Z,101241.97
2023-01-25T10:13:38.310Z,101242.69
2023-01-25T10:16:17.700Z,101242.69
2023-01-25T10:18:59.439Z,101242.47
2023-01-25T10:21:32.572Z,101239.91
2023-01-25T10:26:42.547Z,101234.50
2023-01-25T10:29:12.726Z,101234.91
2023-01-25T10:31:53.391Z,101228.00
2023-01-25T10:34:26.488Z,101222.28
2023-01-25T10:37:01.612Z,101217.00
2023-01-25T10:39:32.870Z,101216.34
2023-01-25T10:42:10.084Z,101214.63
2023-01-25T10:44:37.231Z,101207.41
2023-01-25T10:47:03.855Z,101204.75
2023-01-25T10:49:39.866Z,101201.44
2023-01-25T10:52:14.968Z,101190.41
2023-01-25T10:54:41.938Z,101185.44
2023-01-25T10:57:12.772Z,101185.97
2023-01-25T10:59:39.443Z,101181.28
2023-01-25T11:02:12.748Z,101182.28
2023-01-25T11:04:40.149Z,101182.13
2023-01-25T11:07:11.678Z,101172.72
2023-01-25T11:09:39.899Z,101157.03
2023-01-25T11:12:11.710Z,101158.19
2023-01-25T11:14:38.642Z,101150.50
2023-01-25T11:17:06.618Z,101151.88
2023-01-25T11:19:34.909Z,101142.56
2023-01-25T11:22:06.896Z,101142.81
2023-01-25T11:24:35.761Z,101136.28
2023-01-25T11:27:11.705Z,101130.50
2023-01-25T11:29:38.475Z,101128.84
2023-01-25T11:32:11.883Z,101121.03
2023-01-25T11:34:38.496Z,101122.09
2023-01-25T11:37:11.719Z,101124.13
2023-01-25T11:39:46.545Z,101110.97
2023-01-25T11:42:38.083Z,101108.34
2023-01-25T11:45:12.801Z,101102.97
2023-01-25T11:47:55.164Z,101097.97
2023-01-25T11:50:24.729Z,101095.53
2023-01-25T11:53:12.651Z,101092.94
2023-01-25T11:55:48.599Z,101077.47
2023-01-25T11:58:33.998Z,101071.06
2023-01-25T12:01:12.788Z,101066.13
2023-01-25T12:04:00.911Z,101059.53
2023-01-25T12:06:36.287Z,101052.56
2023-01-25T12:09:12.687Z,101049.22
2023-01-25T12:12:06.925Z,101044.88
2023-01-25T12:14:48.824Z,101043.13
2023-01-25T12:17:21.471Z,101038.34
2023-01-25T12:20:10.553Z,101027.38
2023-01-25T12:22:39.999Z,101028.50
2023-01-25T12:28:03.732Z,101022.31
2023-01-25T12:30:49.567Z,101024.22
2023-01-25T12:33:34.062Z,101009.25
2023-01-25T12:36:13.256Z,101011.69
2023-01-25T12:39:06.854Z,101000.63
2023-01-25T12:42:04.645Z,101000.72
2023-01-25T12:44:37.352Z,100996.59
2023-01-25T12:49:53.950Z,100985.41
2023-01-25T12:52:27.346Z,100975.81
2023-01-25T12:55:00.529Z,100968.97
2023-01-25T12:57:36.062Z,100964.63
2023-01-25T13:00:14.167Z,100960.41
2023-01-25T13:02:59.274Z,100943.53
2023-01-25T13:05:37.840Z,100948.59
2023-01-25T13:08:15.833Z,100943.41
2023-01-25T13:10:52.924Z,100934.59
2023-01-25T13:13:22.462Z,100933.38
2023-01-25T13:15:49.245Z,100924.72
2023-01-25T13:18:25.052Z,100925.69
2023-01-25T13:20:54.256Z,100918.94
2023-01-25T13:23:35.260Z,100918.19
2023-01-25T13:26:12.809Z,100915.06
2023-01-25T13:28:46.764Z,100916.38
2023-01-25T13:31:51.999Z,100914.34
2023-01-25T13:34:42.567Z,100918.53
2023-01-25T13:37:11.802Z,100914.09
2023-01-25T13:39:38.660Z,100910.00
2023-01-25T13:42:12.771Z,100906.25
2023-01-25T13:44:45.386Z,100907.97
2023-01-25T13:47:17.087Z,100907.81
2023-01-25T13:49:54.194Z,100895.03
2023-01-25T13:52:24.791Z,100890.94
2023-01-25T13:54:56.514Z,100884.28
2023-01-25T13:57:32.240Z,100892.41
2023-01-25T14:00:10.619Z,100886.34
2023-01-25T14:02:39.661Z,100881.03
2023-01-25T14:05:07.694Z,100881.03
2023-01-25T14:07:37.174Z,100882.00
2023-01-25T14:10:12.904Z,100882.25
2023-01-25T14:12:45.644Z,100875.47
2023-01-25T14:15:32.570Z,100867.16
2023-01-25T14:20:37.258Z,100866.34
2023-01-25T14:23:05.618Z,100855.72
2023-01-25T14:25:33.685Z,100857.66
2023-01-25T14:28:02.654Z,100860.03
2023-01-25T14:30:32.706Z,100858.50
2023-01-25T14:33:02.578Z,100849.44
2023-01-25T14:35:43.098Z,100854.16
2023-01-25T14:38:27.265Z,100846.31
2023-01-25T14:40:57.672Z,100844.63
2023-01-25T14:43:25.724Z,100831.84
2023-01-25T14:45:53.601Z,100828.34
2023-01-25T14:48:37.478Z,100833.19
2023-01-25T14:51:10.370Z,100822.19
2023-01-25T14:53:41.260Z,100827.50
2023-01-25T14:56:11.933Z,100829.91
2023-01-25T14:58:43.216Z,100820.03
2023-01-25T15:01:12.912Z,100820.97
2023-01-25T15:03:44.880Z,100809.16
2023-01-25T15:06:12.000Z,100808.09
2023-01-25T15:08:41.013Z,100808.44
2023-01-25T15:11:31.548Z,100812.31
2023-01-25T15:14:12.934Z,100809.66
2023-01-25T15:16:42.120Z,100810.84
2023-01-25T15:19:14.075Z,100803.84
2023-01-25T15:21:41.052Z,100801.94
2023-01-25T15:24:12.958Z,100804.81
2023-01-25T15:26:40.357Z,100811.94
2023-01-25T15:31:38.705Z,100796.41
2023-01-25T15:34:08.400Z,100793.50
2023-01-25T15:36:35.397Z,100790.84
2023-01-25T15:39:02.302Z,100793.53
2023-01-25T15:41:29.142Z,100783.38
2023-01-25T15:43:56.245Z,100782.41
2023-01-25T15:46:26.866Z,100781.69
2023-01-25T15:48:54.213Z,100779.75
2023-01-25T15:51:21.804Z,100776.41
2023-01-25T15:53:48.600Z,100777.59
2023-01-25T15:56:28.072Z,100774.94
2023-01-25T15:58:57.832Z,100778.44
2023-01-25T16:01:27.556Z,100774.22
2023-01-25T16:03:59.479Z,100777.47
2023-01-25T16:06:38.218Z,100768.31
2023-01-25T16:09:13.003Z,100768.31
2023-01-25T16:11:40.210Z,100763.25
2023-01-25T16:14:07.065Z,100754.94
2023-01-25T16:16:39.721Z,100752.03
2023-01-25T16:19:06.645Z,100759.28
2023-01-25T16:21:33.378Z,100754.81
2023-01-25T16:24:00.909Z,100761.44
2023-01-25T16:26:29.530Z,100763.25
2023-01-25T16:28:57.098Z,100761.44
2023-01-25T16:31:32.919Z,100759.75
2023-01-25T16:34:01.141Z,100751.94
2023-01-25T16:36:30.422Z,100750.13
2023-01-25T16:39:07.708Z,100754.72
2023-01-25T16:41:34.473Z,100759.03
2023-01-25T16:44:01.149Z,100754.69
2023-01-25T16:46:28.083Z,100760.72
2023-01-25T16:48:57.482Z,100751.91
2023-01-25T16:51:28.530Z,100745.03
2023-01-25T16:53:57.149Z,100744.81
2023-01-25T16:56:35.397Z,100742.66
2023-01-25T16:59:05.337Z,100738.91
2023-01-25T17:01:32.909Z,100733.97
2023-01-25T17:04:00.108Z,100736.03
2023-01-25T17:06:30.136Z,100725.78
2023-01-25T17:09:09.447Z,100718.44
2023-01-25T17:11:38.685Z,100717.47
2023-01-25T17:14:05.929Z,100717.22
2023-01-25T17:16:33.147Z,100711.91
2023-01-25T17:21:37.452Z,100713.97
2023-01-25T17:24:04.720Z,100718.06
2023-01-25T17:26:32.329Z,100720.94
2023-01-25T17:29:04.805Z,100711.31
2023-01-25T17:31:34.918Z,100701.56
2023-01-25T17:34:12.851Z,100702.28
2023-01-25T17:36:40.199Z,100705.03
2023-01-25T17:39:07.917Z,100699.97
2023-01-25T17:41:34.900Z,100696.38
2023-01-25T17:44:02.177Z,100685.06
2023-01-25T17:46:33.422Z,100698.53
2023-01-25T17:49:02.425Z,100689.75
2023-01-25T17:51:31.074Z,100688.19
2023-01-25T17:53:58.309Z,100687.84
2023-01-25T17:56:25.994Z,100684.69
2023-01-25T17:58:53.361Z,100674.94
2023-01-25T18:01:25.481Z,100670.72
2023-01-25T18:03:54.219Z,100658.19
2023-01-25T18:06:26.210Z,100662.16
2023-01-25T18:08:55.685Z,100669.16
2023-01-25T18:11:26.216Z,100662.63
2023-01-25T18:13:56.098Z,100669.88
2023-01-25T18:16:25.686Z,100659.75
2023-01-25T18:18:54.588Z,100660.22
2023-01-25T18:21:25.322Z,100662.53
2023-01-25T18:23:57.222Z,100653.13
2023-01-25T18:26:27.414Z,100648.91
2023-01-25T18:28:58.308Z,100652.56
2023-01-25T18:31:25.514Z,100646.00
2023-01-25T18:33:52.995Z,100651.56
2023-01-25T18:36:20.716Z,100656.25
2023-01-25T18:38:47.422Z,100654.44
2023-01-25T18:41:15.801Z,100647.34
2023-01-25T18:43:42.479Z,100642.88
2023-01-25T18:48:37.865Z,100643.59
2023-01-25T18:51:18.004Z,100641.06
2023-01-25T18:53:47.918Z,100642.06
2023-01-25T18:56:19.928Z,100638.81
2023-01-25T18:58:51.254Z,100638.31
2023-01-25T19:01:20.317Z,100639.53
2023-01-25T19:03:52.066Z,100635.69
2023-01-25T19:06:22.308Z,100637.72
2023-01-25T19:08:54.608Z,100626.06
2023-01-25T19:11:24.388Z,100624.59
2023-01-25T19:13:51.491Z,100626.75
2023-01-25T19:16:21.371Z,100617.72
2023-01-25T19:18:53.681Z,100621.72
2023-01-25T19:21:28.378Z,100613.28
2023-01-25T19:23:59.283Z,100607.38
2023-01-25T19:26:26.752Z,100604.84
2023-01-25T19:29:00.361Z,100608.47
2023-01-25T19:31:32.772Z,100607.50
2023-01-25T19:34:07.945Z,100609.19
2023-01-25T19:36:37.677Z,100611.47
2023-01-25T19:41:39.118Z,100603.41
2023-01-25T19:44:10.076Z,100602.69
2023-01-25T19:46:39.396Z,100592.69
2023-01-25T19:49:09.353Z,100588.47
2023-01-25T19:51:38.809Z,100586.53
2023-01-25T19:54:08.018Z,100591.59
2023-01-25T19:56:40.516Z,100584.63
2023-01-25T20:01:46.712Z,100578.84
2023-01-25T20:04:19.963Z,100572.31
2023-01-25T20:06:48.145Z,100571.25
2023-01-25T20:09:19.205Z,100562.47
2023-01-25T20:11:47.665Z,100562.34
2023-01-25T20:14:17.705Z,100558.84
2023-01-25T20:16:44.553Z,100558.38
2023-01-25T20:19:13.425Z,100559.69
2023-01-25T20:21:40.257Z,100561.50
2023-01-25T20:24:09.967Z,100559.44
2023-01-25T20:26:39.546Z,100557.41
2023-01-25T20:29:07.685Z,100548.16
2023-01-25T20:31:46.076Z,100548.25
2023-01-25T20:34:19.280Z,100554.75
2023-01-25T20:36:47.282Z,100546.94
2023-01-25T20:39:19.968Z,100541.75
2023-01-25T20:41:47.543Z,100535.13
2023-01-25T20:44:17.295Z,100536.81
2023-01-25T20:46:44.460Z,100528.06
2023-01-25T20:49:13.009Z,100519.13
2023-01-25T20:51:43.037Z,100516.50
2023-01-25T20:56:37.828Z,100505.06
2023-01-25T20:59:06.340Z,100505.25
2023-01-25T21:01:37.116Z,100504.09
2023-01-25T21:04:06.014Z,100490.94
2023-01-25T21:06:35.344Z,100488.53
2023-01-25T21:09:03.140Z,100480.38
2023-01-25T21:11:30.285Z,100484.00
2023-01-25T21:13:58.528Z,100469.31
2023-01-25T21:16:25.551Z,100479.91
2023-01-25T21:18:55.251Z,100481.31
2023-01-25T21:21:29.935Z,100469.75
2023-01-25T21:24:00.098Z,100477.75
2023-01-25T21:26:29.548Z,100477.75
2023-01-25T21:28:56.646Z,100465.22
2023-01-25T21:31:27.545Z,100469.56
2023-01-25T21:33:56.547Z,100467.41
2023-01-25T21:36:23.639Z,100471.47
2023-01-25T21:39:01.653Z,100483.03
2023-01-25T21:41:30.656Z,100472.69
2023-01-25T21:44:12.957Z,100477.88
2023-01-25T21:46:52.311Z,100474.13
2023-01-25T21:49:45.916Z,100481.13
2023-01-25T21:52:12.632Z,100470.28
2023-01-25T21:54:39.431Z,100472.72
2023-01-25T21:59:38.225Z,100465.97
2023-01-25T22:02:06.924Z,100472.25
2023-01-25T22:04:36.443Z,100475.25
2023-01-25T22:07:04.571Z,100470.56
2023-01-25T22:09:31.363Z,100480.16
2023-01-25T22:11:58.530Z,100471.03
2023-01-25T22:14:25.308Z,100478.50
2023-01-25T22:16:52.630Z,100469.59
2023-01-25T22:19:19.945Z,100474.84
2023-01-25T22:21:49.451Z,100471.28
2023-01-25T22:24:16.477Z,100480.78
2023-01-25T22:27:05.461Z,100468.88
2023-01-25T22:29:35.258Z,100458.53
2023-01-25T22:32:02.513Z,100458.50
2023-01-25T22:34:29.182Z,100452.59
2023-01-25T22:36:55.881Z,100458.00
2023-01-25T22:39:25.338Z,100449.22
2023-01-25T22:41:52.334Z,100443.13
2023-01-25T22:44:19.018Z,100436.88
2023-01-25T22:46:46.526Z,100435.41
2023-01-25T22:49:13.178Z,100430.13
2023-01-25T22:51:40.272Z,100421.47
2023-01-25T22:54:07.169Z,100425.78
2023-01-25T22:56:34.567Z,100416.38
2023-01-25T22:59:01.823Z,100414.44
2023-01-25T23:01:31.219Z,100415.19
2023-01-25T23:03:58.183Z,100410.16
2023-01-25T23:06:27.279Z,100396.38
2023-01-25T23:08:56.333Z,100392.09
2023-01-25T23:11:26.444Z,100393.44
2023-01-25T23:16:37.770Z,100372.06
2023-01-25T23:19:05.618Z,100364.78
2023-01-25T23:21:32.694Z,100362.25
2023-01-25T23:24:01.086Z,100359.56
2023-01-25T23:26:29.854Z,100357.41
2023-01-25T23:28:57.965Z,100353.75
2023-01-25T23:31:26.319Z,100355.94
2023-01-25T23:33:56.043Z,100347.28
2023-01-25T23:36:26.116Z,100345.94
2023-01-25T23:38:55.241Z,100343.66
2023-01-25T23:41:23.820Z,100342.75
2023-01-25T23:43:56.538Z,100333.50
2023-01-25T23:46:28.500Z,100330.97
2023-01-25T23:48:55.443Z,100324.75
2023-01-25T23:51:22.305Z,100324.00
2023-01-25T23:53:49.046Z,100335.00
2023-01-25T23:56:20.995Z,100327.78
2023-01-25T23:58:49.102Z,100331.28
